createdAt,value
2022-10-09T00:01:55.156Z,10.5
2022-10-09T00:04:55.200Z,11.1
2022-10-09T00:07:55.305Z,11.2
2022-10-09T00:10:55.163Z,12.3
2022-10-09T00:13:55.168Z,11.8
2022-10-09T00:16:55.231Z,12.5
2022-10-09T00:19:55.192Z,10.1
2022-10-09T00:22:55.193Z,8.9
2022-10-09T00:25:55.219Z,10.4
2022-10-09T00:28:55.252Z,8.5
2022-10-09T00:31:55.213Z,13.9
2022-10-09T00:34:55.234Z,9.4
2022-10-09T00:37:55.232Z,10.2
2022-10-09T00:40:55.247Z,10.9
2022-10-09T00:43:55.355Z,9.1
2022-10-09T00:46:55.267Z,9
2022-10-09T00:49:55.274Z,9.6
2022-10-09T00:52:55.282Z,10.4
2022-10-09T00:55:55.285Z,9.9
2022-10-09T00:58:55.296Z,9.3
2022-10-09T01:01:55.448Z,9.1
2022-10-09T01:04:55.339Z,9.8
2022-10-09T01:07:55.331Z,8.9
2022-10-09T01:10:55.337Z,9.5
2022-10-09T01:13:55.349Z,10.3
2022-10-09T01:16:55.362Z,8.3
2022-10-09T01:19:55.404Z,7.8
2022-10-09T01:22:55.387Z,8.9
2022-10-09T01:25:55.399Z,10.5
2022-10-09T01:28:55.409Z,9.9
2022-10-09T01:31:55.416Z,9.8
2022-10-09T01:34:55.462Z,10.8
2022-10-09T01:37:55.460Z,11.1
2022-10-09T01:40:55.436Z,9
2022-10-09T01:43:55.450Z,10.9
2022-10-09T01:46:55.463Z,9.5
2022-10-09T01:49:55.496Z,9.8
2022-10-09T01:52:55.493Z,9.7
2022-10-09T01:55:55.521Z,10.2
2022-10-09T01:58:55.511Z,9.7
2022-10-09T02:01:55.631Z,10.8
2022-10-09T02:04:55.537Z,12.8
2022-10-09T02:07:55.537Z,9.4
2022-10-09T02:10:55.553Z,9.6
2022-10-09T02:13:55.584Z,11.6
2022-10-09T02:16:55.568Z,9.3
2022-10-09T02:19:55.603Z,10.8
2022-10-09T02:22:55.607Z,9.4
2022-10-09T02:25:55.611Z,9.7
2022-10-09T02:28:55.617Z,9.6
2022-10-09T02:31:55.632Z,8.6
2022-10-09T02:34:55.631Z,9.9
2022-10-09T02:37:55.613Z,9
2022-10-09T02:40:55.614Z,8.9
2022-10-09T02:43:55.611Z,9.8
2022-10-09T02:46:55.611Z,10
2022-10-09T02:49:55.650Z,8.3
2022-10-09T02:52:55.616Z,10.3
2022-10-09T02:55:55.612Z,10.1
2022-10-09T02:58:55.614Z,8.6
2022-10-09T03:01:55.675Z,9.1
2022-10-09T03:04:55.631Z,9.8
2022-10-09T03:07:55.649Z,12
2022-10-09T03:10:55.622Z,8.2
2022-10-09T03:13:55.619Z,11.8
2022-10-09T03:16:55.628Z,13.1
2022-10-09T03:19:55.639Z,10
2022-10-09T03:22:55.631Z,10.7
2022-10-09T03:25:55.660Z,13.6
2022-10-09T03:28:55.638Z,9.6
2022-10-09T03:31:55.661Z,10.5
2022-10-09T03:34:55.649Z,8.7
2022-10-09T03:37:55.637Z,9.1
2022-10-09T03:40:55.646Z,11
2022-10-09T03:43:55.674Z,10.6
2022-10-09T03:46:55.690Z,10.4
2022-10-09T03:49:55.653Z,9.1
2022-10-09T03:52:55.645Z,8.8
2022-10-09T03:55:55.650Z,12.2
2022-10-09T03:58:55.645Z,11.4
2022-10-09T04:01:55.677Z,11.7
2022-10-09T04:04:55.663Z,14.2
2022-10-09T04:07:55.655Z,11.2
2022-10-09T04:10:55.660Z,10.6
2022-10-09T04:13:55.762Z,11.6
2022-10-09T04:16:55.672Z,10.9
2022-10-09T04:19:55.713Z,11.2
2022-10-09T04:22:55.672Z,11.7
2022-10-09T04:25:55.683Z,11.6
2022-10-09T04:28:55.687Z,12.7
2022-10-09T04:31:55.725Z,11.8
2022-10-09T04:34:55.712Z,10.6
2022-10-09T04:37:55.715Z,13.1
2022-10-09T04:40:55.695Z,13.4
2022-10-09T04:43:55.694Z,18.4
2022-10-09T04:46:55.695Z,15.8
2022-10-09T04:49:55.733Z,15.3
2022-10-09T04:52:55.707Z,17.5
2022-10-09T04:55:55.737Z,17.8
2022-10-09T04:58:55.713Z,14.6
2022-10-09T05:01:55.786Z,15.9
2022-10-09T05:04:55.729Z,17.6
2022-10-09T05:07:55.723Z,15.9
2022-10-09T05:10:55.727Z,16
2022-10-09T05:13:55.761Z,16.2
2022-10-09T05:17:12.812Z,16.5
2022-10-09T05:19:55.751Z,16.9
2022-10-09T05:22:55.747Z,20
2022-10-09T05:25:55.747Z,18.3
2022-10-09T05:28:55.759Z,14.8
2022-10-09T05:31:55.850Z,16.3
2022-10-09T05:34:55.965Z,15.9
2022-10-09T05:37:55.776Z,18.5
2022-10-09T05:40:55.779Z,17.7
2022-10-09T05:43:55.782Z,19
2022-10-09T05:46:55.783Z,17.8
2022-10-09T05:49:55.829Z,16.4
2022-10-09T05:52:55.793Z,21.2
2022-10-09T05:55:56.553Z,18.8
2022-10-09T05:58:55.800Z,18
2022-10-09T06:01:55.855Z,18.1
2022-10-09T06:04:55.827Z,16.6
2022-10-09T06:07:55.842Z,16.4
2022-10-09T06:10:55.821Z,16.5
2022-10-09T06:13:55.819Z,16.8
2022-10-09T06:16:55.930Z,14
2022-10-09T06:19:55.831Z,12.5
2022-10-09T06:22:55.826Z,13.4
2022-10-09T06:25:55.847Z,11.6
2022-10-09T06:28:55.831Z,12.3
2022-10-09T06:31:55.839Z,13.1
2022-10-09T06:34:55.845Z,13.3
2022-10-09T06:37:55.835Z,10.4
2022-10-09T06:40:55.840Z,11.4
2022-10-09T06:43:55.863Z,9.5
2022-10-09T06:46:55.848Z,9.3
2022-10-09T06:49:55.848Z,10
2022-10-09T06:52:55.845Z,11.4
2022-10-09T06:55:55.850Z,10
2022-10-09T06:58:55.849Z,7.7
2022-10-09T07:01:55.906Z,7.3
2022-10-09T07:04:55.864Z,9.7
2022-10-09T07:07:55.856Z,8.6
2022-10-09T07:10:55.861Z,10.2
2022-10-09T07:13:55.869Z,9.1
2022-10-09T07:16:55.880Z,9.5
2022-10-09T07:19:55.919Z,8.2
2022-10-09T07:22:55.888Z,8.7
2022-10-09T07:25:55.901Z,8.8
2022-10-09T07:28:55.905Z,9.3
2022-10-09T07:31:55.912Z,10.8
2022-10-09T07:34:55.932Z,10.8
2022-10-09T07:37:55.951Z,8.7
2022-10-09T07:40:55.927Z,9.9
2022-10-09T07:43:55.945Z,11.3
2022-10-09T07:46:55.949Z,10.6
2022-10-09T07:49:55.969Z,8.2
2022-10-09T07:52:55.972Z,7.4
2022-10-09T07:55:56.004Z,9.7
2022-10-09T07:58:55.980Z,12
2022-10-09T08:01:56.056Z,8.1
2022-10-09T08:04:56.013Z,9.2
2022-10-09T08:07:56.010Z,8.9
2022-10-09T08:10:56.021Z,8
2022-10-09T08:13:56.053Z,8.9
2022-10-09T08:16:56.033Z,8.2
2022-10-09T08:19:56.052Z,9.5
2022-10-09T08:22:56.054Z,8.2
2022-10-09T08:25:56.064Z,8.6
2022-10-09T08:28:56.073Z,9
2022-10-09T08:31:56.104Z,7.8
2022-10-09T08:34:56.093Z,9.6
2022-10-09T08:37:56.100Z,11.2
2022-10-09T08:40:58.183Z,9.5
2022-10-09T08:43:56.119Z,10.8
2022-10-09T08:46:56.129Z,9.8
2022-10-09T08:49:56.170Z,8.2
2022-10-09T08:52:56.663Z,7.2
2022-10-09T08:55:56.164Z,7.2
2022-10-09T08:58:56.169Z,9.6
2022-10-09T09:01:56.286Z,10.8
2022-10-09T09:04:56.205Z,9.6
2022-10-09T09:07:56.291Z,7.8
2022-10-09T09:10:56.205Z,6.8
2022-10-09T09:13:56.214Z,7.6
2022-10-09T09:16:56.227Z,8.9
2022-10-09T09:19:56.249Z,8.1
2022-10-09T09:22:56.247Z,7
2022-10-09T09:25:56.280Z,9.6
2022-10-09T09:28:56.296Z,7.7
2022-10-09T09:31:56.273Z,6.3
2022-10-09T09:34:56.301Z,6.5
2022-10-09T09:37:56.306Z,8
2022-10-09T09:40:56.323Z,9
2022-10-09T09:43:56.355Z,6.5
2022-10-09T09:46:56.410Z,7.3
2022-10-09T09:49:56.363Z,7
2022-10-09T09:52:56.364Z,6.4
2022-10-09T09:55:56.376Z,6.5
2022-10-09T09:58:56.391Z,7.9
2022-10-09T10:01:56.454Z,7.6
2022-10-09T10:04:56.431Z,6.3
2022-10-09T10:07:56.433Z,6.2
2022-10-09T10:10:56.438Z,5.8
2022-10-09T10:13:56.454Z,5.3
2022-10-09T10:16:56.468Z,5.1
2022-10-09T10:19:56.521Z,7.7
2022-10-09T10:22:56.492Z,5.6
2022-10-09T10:25:56.513Z,8.5
2022-10-09T10:28:56.530Z,6.3
2022-10-09T10:31:56.541Z,5.4
2022-10-09T10:34:56.563Z,6.7
2022-10-09T10:37:56.594Z,6.3
2022-10-09T10:40:56.590Z,5.1
2022-10-09T10:43:56.593Z,6
2022-10-09T10:46:56.666Z,4.5
2022-10-09T10:49:56.630Z,8.2
2022-10-09T10:52:56.645Z,6.4
2022-10-09T10:55:58.408Z,4.9
2022-10-09T10:58:56.670Z,5.8
2022-10-09T11:01:56.691Z,6.3
2022-10-09T11:04:56.696Z,6.6
2022-10-09T11:07:59.986Z,5.5
2022-10-09T11:10:56.784Z,6.5
2022-10-09T11:13:56.772Z,6.1
2022-10-09T11:16:56.762Z,7.5
2022-10-09T11:19:56.778Z,5.8
2022-10-09T11:22:56.789Z,7.2
2022-10-09T11:25:56.807Z,7.1
2022-10-09T11:28:56.822Z,4.6
2022-10-09T11:31:56.892Z,4.8
2022-10-09T11:34:56.852Z,4.4
2022-10-09T11:37:56.867Z,4.5
2022-10-09T11:40:56.886Z,6.1
2022-10-09T11:43:56.904Z,5.4
2022-10-09T11:46:59.245Z,6.3
2022-10-09T11:49:56.952Z,4.2
2022-10-09T11:52:56.946Z,4.4
2022-10-09T11:55:56.971Z,6.3
2022-10-09T11:58:56.989Z,5.7
2022-10-09T12:01:57.035Z,4.7
2022-10-09T12:04:57.130Z,5.5
2022-10-09T12:07:57.070Z,4.3
2022-10-09T12:10:57.067Z,6.5
2022-10-09T12:13:57.089Z,5.5
2022-10-09T12:16:57.172Z,5.3
2022-10-09T12:20:00.851Z,3.7
2022-10-09T12:23:21.591Z,4.8
2022-10-09T12:25:57.178Z,3.5
2022-10-09T12:28:57.166Z,4.6
2022-10-09T12:31:57.185Z,4.4
2022-10-09T12:34:57.202Z,5.5
2022-10-09T12:37:57.220Z,4.9
2022-10-09T12:40:57.243Z,5.2
2022-10-09T12:43:57.280Z,4.1
2022-10-09T12:46:57.274Z,6.4
2022-10-09T12:49:57.285Z,4.7
2022-10-09T12:52:57.295Z,4
2022-10-09T12:55:57.314Z,5.8
2022-10-09T12:58:57.340Z,4.3
2022-10-09T13:01:57.500Z,4.2
2022-10-09T13:04:57.366Z,6
2022-10-09T13:07:57.380Z,4.5
2022-10-09T13:10:57.393Z,7.2
2022-10-09T13:13:57.400Z,5.7
2022-10-09T13:16:57.464Z,4.9
2022-10-09T13:19:57.465Z,3.9
2022-10-09T13:22:57.454Z,4.2
2022-10-09T13:26:01.153Z,4.8
2022-10-09T13:28:57.494Z,4.1
2022-10-09T13:31:57.513Z,3.9
2022-10-09T13:34:57.528Z,4
2022-10-09T13:37:57.568Z,4.4
2022-10-09T13:40:57.556Z,4
2022-10-09T13:43:57.568Z,5.7
2022-10-09T13:46:57.576Z,5
2022-10-09T13:49:57.597Z,5.8
2022-10-09T13:52:57.624Z,5.6
2022-10-09T13:55:59.951Z,6.3
2022-10-09T13:58:57.657Z,4.1
2022-10-09T14:01:57.689Z,4.7
2022-10-09T14:04:57.678Z,5.2
2022-10-09T14:07:57.692Z,4.9
2022-10-09T14:10:57.707Z,5.2
2022-10-09T14:13:57.759Z,5.1
2022-10-09T14:16:57.752Z,4.2
2022-10-09T14:19:57.775Z,4.9
2022-10-09T14:22:57.795Z,4.9
2022-10-09T14:25:57.807Z,5.3
2022-10-09T14:28:57.837Z,4.6
2022-10-09T14:31:57.868Z,4.2
2022-10-09T14:34:57.861Z,4.4
2022-10-09T14:37:57.871Z,4.4
2022-10-09T14:40:57.889Z,5.2
2022-10-09T14:43:57.911Z,4.8
2022-10-09T14:46:57.930Z,5.6
2022-10-09T14:49:57.966Z,6.2
2022-10-09T14:52:57.954Z,4.8
2022-10-09T14:55:57.962Z,4.4
2022-10-09T14:58:57.982Z,5.1
2022-10-09T15:01:57.992Z,5.7
2022-10-09T15:04:58.012Z,5.4
2022-10-09T15:07:58.062Z,4.3
2022-10-09T15:10:58.022Z,4.6
2022-10-09T15:13:58.034Z,5.7
2022-10-09T15:16:58.054Z,4.7
2022-10-09T15:19:58.052Z,3.4
2022-10-09T15:22:58.074Z,4.3
2022-10-09T15:25:58.103Z,4.5
2022-10-09T15:28:58.074Z,4
2022-10-09T15:31:58.101Z,4.5
2022-10-09T15:34:58.100Z,5.3
2022-10-09T15:37:58.112Z,6.6
2022-10-09T15:40:58.150Z,5.3
2022-10-09T15:43:58.165Z,5.3
2022-10-09T15:46:58.150Z,6.3
2022-10-09T15:49:58.163Z,3.8
2022-10-09T15:52:58.176Z,4.8
2022-10-09T15:55:58.186Z,5.1
2022-10-09T15:58:58.202Z,3.6
2022-10-09T16:01:58.285Z,4.7
2022-10-09T16:04:58.226Z,4.8
2022-10-09T16:07:58.247Z,4.9
2022-10-09T16:10:58.305Z,6.7
2022-10-09T16:13:58.261Z,4.9
2022-10-09T16:16:58.266Z,5.6
2022-10-09T16:19:58.296Z,6.5
2022-10-09T16:22:58.281Z,3.8
2022-10-09T16:25:58.296Z,5.1
2022-10-09T16:28:58.307Z,3.8
2022-10-09T16:31:58.321Z,5.7
2022-10-09T16:34:58.330Z,6.2
2022-10-09T16:37:58.371Z,4.6
2022-10-09T16:41:01.656Z,6
2022-10-09T16:43:58.362Z,5.3
2022-10-09T16:46:58.381Z,5.4
2022-10-09T16:49:58.386Z,5.4
2022-10-09T16:52:58.399Z,6.4
2022-10-09T16:55:58.442Z,6.9
2022-10-09T16:58:58.422Z,5.5
2022-10-09T17:01:58.438Z,6.2
2022-10-09T17:04:58.455Z,5.2
2022-10-09T17:07:58.457Z,5.9
2022-10-09T17:10:58.462Z,5.3
2022-10-09T17:13:58.503Z,7
2022-10-09T17:16:58.488Z,4.9
2022-10-09T17:19:58.501Z,6.1
2022-10-09T17:22:58.511Z,6
2022-10-09T17:25:58.523Z,5.4
2022-10-09T17:28:58.654Z,8.8
2022-10-09T17:31:58.571Z,5.4
2022-10-09T17:34:58.566Z,6
2022-10-09T17:37:58.570Z,6.8
2022-10-09T17:40:58.588Z,7.6
2022-10-09T17:43:58.595Z,6.2
2022-10-09T17:46:58.618Z,7.8
2022-10-09T17:49:58.766Z,7.3
2022-10-09T17:52:58.641Z,8.2
2022-10-09T17:55:58.662Z,8.2
2022-10-09T17:58:58.671Z,11
2022-10-09T18:01:58.682Z,12.6
2022-10-09T18:04:58.693Z,10.8
2022-10-09T18:07:58.732Z,9.8
2022-10-09T18:10:58.715Z,8.1
2022-10-09T18:13:58.729Z,8.8
2022-10-09T18:16:58.740Z,5.9
2022-10-09T18:19:58.756Z,6.2
2022-10-09T18:22:58.771Z,7.7
2022-10-09T18:25:58.806Z,7.1
2022-10-09T18:28:58.793Z,6.3
2022-10-09T18:31:58.805Z,6.7
2022-10-09T18:34:58.817Z,4.5
2022-10-09T18:37:58.829Z,7.6
2022-10-09T18:40:58.847Z,7.7
2022-10-09T18:43:58.885Z,6.3
2022-10-09T18:46:58.882Z,7.8
2022-10-09T18:49:58.881Z,9.8
2022-10-09T18:52:58.912Z,8.3
2022-10-09T18:55:58.906Z,8.8
2022-10-09T18:58:58.907Z,7.9
2022-10-09T19:01:58.942Z,9
2022-10-09T19:04:58.930Z,8.3
2022-10-09T19:07:58.948Z,9.2
2022-10-09T19:10:58.960Z,10
2022-10-09T19:13:58.977Z,13.7
2022-10-09T19:16:58.990Z,11
2022-10-09T19:19:59.023Z,9.4
2022-10-09T19:22:59.013Z,9
2022-10-09T19:25:59.026Z,7.8
2022-10-09T19:28:59.034Z,8.8
2022-10-09T19:31:59.052Z,8.4
2022-10-09T19:34:59.074Z,8.2
2022-10-09T19:37:59.109Z,7.7
2022-10-09T19:40:59.094Z,8.8
2022-10-09T19:43:59.106Z,8.1
2022-10-09T19:46:59.107Z,6.6
2022-10-09T19:49:59.114Z,7.4
2022-10-09T19:52:59.128Z,9.3
2022-10-09T19:55:59.173Z,9.1
2022-10-09T19:58:59.156Z,8.2
2022-10-09T20:01:59.171Z,7.6
2022-10-09T20:04:59.183Z,7.3
2022-10-09T20:07:59.184Z,7.5
2022-10-09T20:10:59.193Z,6.9
2022-10-09T20:13:59.239Z,7.7
2022-10-09T20:16:59.221Z,9.7
2022-10-09T20:19:59.244Z,6.9
2022-10-09T20:22:59.252Z,7.4
2022-10-09T20:25:59.270Z,7.7
2022-10-09T20:28:59.280Z,6.4
2022-10-09T20:31:59.315Z,7.5
2022-10-09T20:34:59.306Z,5.6
2022-10-09T20:37:59.322Z,5.9
2022-10-09T20:40:59.325Z,7.5
2022-10-09T20:43:59.332Z,6.1
2022-10-09T20:46:59.349Z,7.2
2022-10-09T20:49:59.407Z,6.7
2022-10-09T20:52:59.374Z,5.9
2022-10-09T20:55:59.391Z,6.9
2022-10-09T20:58:59.396Z,8.2
2022-10-09T21:01:59.407Z,7.1
2022-10-09T21:04:59.424Z,8.3
2022-10-09T21:07:59.460Z,7.2
2022-10-09T21:10:59.451Z,6
2022-10-09T21:13:59.458Z,8.2
2022-10-09T21:16:59.472Z,7.1
2022-10-09T21:19:59.495Z,10.4
2022-10-09T21:22:59.500Z,10.7
2022-10-09T21:25:59.535Z,8.6
2022-10-09T21:29:00.196Z,7.2
2022-10-09T21:31:59.534Z,9.4
2022-10-09T21:34:59.544Z,8.3
2022-10-09T21:37:59.555Z,6.1
2022-10-09T21:40:59.580Z,9
2022-10-09T21:43:59.611Z,7.8
2022-10-09T21:46:59.605Z,7.2
2022-10-09T21:49:59.616Z,7.2
2022-10-09T21:52:59.615Z,5.6
2022-10-09T21:55:59.638Z,5.2
2022-10-09T21:58:59.649Z,7.3
2022-10-09T22:01:59.687Z,7.1
2022-10-09T22:04:59.675Z,6.7
2022-10-09T22:07:59.689Z,6
2022-10-09T22:10:59.703Z,5.3
2022-10-09T22:13:59.719Z,6.9
2022-10-09T22:16:59.738Z,5.9
2022-10-09T22:19:59.764Z,7.6
2022-10-09T22:22:59.753Z,6.5
2022-10-09T22:25:59.750Z,5.7
2022-10-09T22:28:59.769Z,7
2022-10-09T22:31:59.787Z,7
2022-10-09T22:34:59.808Z,6.2
2022-10-09T22:37:59.839Z,7
2022-10-09T22:40:59.814Z,8.6
2022-10-09T22:43:59.833Z,8.9
2022-10-09T22:46:59.838Z,6.4
2022-10-09T22:49:59.857Z,7.3
2022-10-09T22:52:59.873Z,8
2022-10-09T22:55:59.915Z,6.1
2022-10-09T22:58:59.904Z,5.3
2022-10-09T23:01:59.916Z,7.4
2022-10-09T23:04:59.930Z,9.2
2022-10-09T23:07:59.959Z,8.4
2022-10-09T23:10:59.961Z,5.4
2022-10-09T23:14:00.003Z,8.3
2022-10-09T23:16:59.987Z,7
2022-10-09T23:19:59.998Z,8.4
2022-10-09T23:23:00.004Z,7.6
2022-10-09T23:26:00.023Z,8.7
2022-10-09T23:29:00.045Z,6.3
2022-10-09T23:32:00.080Z,7.3
2022-10-09T23:35:00.055Z,7.3
2022-10-09T23:38:00.064Z,7.4
2022-10-09T23:41:00.080Z,7.1
2022-10-09T23:44:00.112Z,7.1
2022-10-09T23:47:00.099Z,7.7
2022-10-09T23:50:00.138Z,7.5
2022-10-09T23:53:00.125Z,8.5
2022-10-09T23:56:00.136Z,6.8
2022-10-09T23:59:00.147Z,9.7
